createdAt,value
2023-05-17T00:02:31.152Z,99.99
2023-05-17T00:05:33.478Z,99.99
2023-05-17T00:08:36.376Z,99.99
2023-05-17T00:11:38.695Z,99.99
2023-05-17T00:14:41.032Z,99.99
2023-05-17T00:17:43.344Z,99.99
2023-05-17T00:20:45.636Z,99.99
2023-05-17T00:23:47.876Z,99.99
2023-05-17T00:26:50.116Z,99.99
2023-05-17T00:29:52.510Z,99.99
2023-05-17T00:32:54.895Z,99.99
2023-05-17T00:35:57.347Z,99.99
2023-05-17T00:38:59.912Z,99.99
2023-05-17T00:42:02.198Z,99.99
2023-05-17T00:45:04.960Z,99.99
2023-05-17T00:48:07.475Z,99.99
2023-05-17T00:51:10.555Z,99.99
2023-05-17T00:54:14.584Z,99.99
2023-05-17T00:57:17.163Z,99.99
2023-05-17T01:00:19.471Z,99.99
2023-05-17T01:03:25.046Z,99.99
2023-05-17T01:06:27.543Z,99.99
2023-05-17T01:09:30.399Z,99.99
2023-05-17T01:13:16.164Z,99.99
2023-05-17T01:16:36.947Z,99.99
2023-05-17T01:20:02.901Z,99.99
2023-05-17T01:23:24.185Z,99.99
2023-05-17T01:26:39.436Z,99.99
2023-05-17T01:29:44.686Z,99.99
2023-05-17T01:32:47.487Z,99.99
2023-05-17T01:35:49.866Z,99.99
2023-05-17T01:38:52.225Z,99.99
2023-05-17T01:42:12.303Z,99.99
2023-05-17T01:45:30.673Z,99.99
2023-05-17T01:48:39.982Z,99.99
2023-05-17T01:51:49.300Z,99.99
2023-05-17T01:55:09.961Z,99.99
2023-05-17T01:58:13.099Z,99.99
2023-05-17T02:01:18.899Z,99.99
2023-05-17T02:04:21.570Z,99.99
2023-05-17T02:07:24.290Z,99.99
2023-05-17T02:10:26.563Z,99.99
2023-05-17T02:13:28.824Z,99.99
2023-05-17T02:16:31.116Z,99.99
2023-05-17T02:19:33.431Z,99.99
2023-05-17T02:22:35.937Z,99.99
2023-05-17T02:25:38.217Z,99.99
2023-05-17T02:28:41.272Z,99.99
2023-05-17T02:31:43.534Z,99.99
2023-05-17T02:34:46.183Z,99.99
2023-05-17T02:37:48.511Z,99.99
2023-05-17T02:40:50.807Z,99.99
2023-05-17T02:43:53.189Z,99.99
2023-05-17T02:46:55.464Z,99.99
2023-05-17T02:49:57.795Z,99.99
2023-05-17T02:53:00.473Z,99.99
2023-05-17T02:56:02.719Z,99.99
2023-05-17T02:59:05.056Z,99.99
2023-05-17T03:02:08.869Z,99.99
2023-05-17T03:05:11.240Z,99.99
2023-05-17T03:08:17.994Z,99.99
2023-05-17T03:11:22.172Z,99.99
2023-05-17T03:14:25.362Z,99.99
2023-05-17T03:17:27.817Z,99.99
2023-05-17T03:20:30.686Z,99.99
2023-05-17T03:23:33.021Z,99.99
2023-05-17T03:26:37.443Z,99.99
2023-05-17T03:29:41.655Z,99.99
2023-05-17T03:32:44.035Z,99.99
2023-05-17T03:35:49.618Z,99.99
2023-05-17T03:38:51.999Z,99.99
2023-05-17T03:41:54.318Z,99.99
2023-05-17T03:44:58.050Z,99.99
2023-05-17T03:48:00.769Z,99.99
2023-05-17T03:51:04.358Z,99.99
2023-05-17T03:54:06.666Z,99.99
2023-05-17T03:57:08.988Z,99.99
2023-05-17T04:00:12.468Z,99.99
2023-05-17T04:03:19.828Z,99.99
2023-05-17T04:06:22.953Z,99.99
2023-05-17T04:09:25.981Z,99.99
2023-05-17T04:12:29.240Z,99.99
2023-05-17T04:15:31.628Z,99.99
2023-05-17T04:18:36.702Z,99.99
2023-05-17T04:21:39.172Z,99.99
2023-05-17T04:24:42.046Z,99.99
2023-05-17T04:27:46.226Z,99.99
2023-05-17T04:30:49.190Z,99.99
2023-05-17T04:33:51.655Z,99.99
2023-05-17T04:36:54.102Z,99.99
2023-05-17T04:39:56.733Z,99.99
2023-05-17T04:42:59.064Z,99.99
2023-05-17T04:46:01.947Z,99.99
2023-05-17T04:49:05.148Z,99.99
2023-05-17T04:52:07.558Z,99.99
2023-05-17T04:55:10.773Z,99.99
2023-05-17T04:58:13.911Z,99.99
2023-05-17T05:01:18.548Z,99.99
2023-05-17T05:04:21.189Z,99.99
2023-05-17T05:07:25.064Z,99.99
2023-05-17T05:10:31.108Z,99.99
2023-05-17T05:13:33.555Z,99.99
2023-05-17T05:16:36.524Z,99.99
2023-05-17T05:19:39.153Z,99.99
2023-05-17T05:22:42.424Z,99.99
2023-05-17T05:25:46.049Z,99.99
2023-05-17T05:28:48.530Z,99.99
2023-05-17T05:31:50.976Z,99.99
2023-05-17T05:34:53.748Z,99.99
2023-05-17T05:37:59.408Z,99.99
2023-05-17T05:41:02.024Z,99.99
2023-05-17T05:44:05.425Z,99.99
2023-05-17T05:47:08.106Z,99.99
2023-05-17T05:50:11.578Z,99.99
2023-05-17T05:53:19.399Z,99.99
2023-05-17T05:56:29.592Z,99.99
2023-05-17T05:59:32.610Z,99.99
2023-05-17T06:02:35.207Z,99.99
2023-05-17T06:05:38.392Z,99.99
2023-05-17T06:08:40.805Z,99.99
2023-05-17T06:11:43.177Z,99.99
2023-05-17T06:14:45.558Z,99.99
2023-05-17T06:17:47.933Z,99.99
2023-05-17T06:20:50.325Z,99.99
2023-05-17T06:23:52.926Z,99.99
2023-05-17T06:26:55.209Z,99.99
2023-05-17T06:29:57.507Z,99.99
2023-05-17T06:33:09.098Z,99.99
2023-05-17T06:36:18.042Z,99.99
2023-05-17T06:39:20.628Z,99.99
2023-05-17T06:42:22.974Z,99.99
2023-05-17T06:45:27.177Z,99.88
2023-05-17T06:48:29.716Z,99.92
2023-05-17T06:51:32.102Z,99.75
2023-05-17T06:54:34.463Z,99.15
2023-05-17T06:57:37.223Z,99.18
2023-05-17T07:00:39.604Z,99.21
2023-05-17T07:03:42.035Z,99.19
2023-05-17T07:06:44.385Z,98.22
2023-05-17T07:09:46.668Z,97.92
2023-05-17T07:12:49.046Z,97.66
2023-05-17T07:15:51.321Z,97.21
2023-05-17T07:18:53.707Z,96.65
2023-05-17T07:21:57.345Z,96.14
2023-05-17T07:24:59.706Z,95.49
2023-05-17T07:28:03.202Z,95.35
2023-05-17T07:31:05.751Z,94.40
2023-05-17T07:34:08.055Z,93.17
2023-05-17T07:37:10.520Z,89.74
2023-05-17T07:40:13.230Z,90.26
2023-05-17T07:43:15.607Z,89.42
2023-05-17T07:46:18.273Z,90.16
2023-05-17T07:49:23.432Z,90.97
2023-05-17T07:52:25.770Z,91.08
2023-05-17T07:55:28.299Z,91.42
2023-05-17T07:58:30.884Z,90.50
2023-05-17T08:01:33.148Z,90.95
2023-05-17T08:04:36.158Z,90.15
2023-05-17T08:07:38.513Z,89.75
2023-05-17T08:10:40.876Z,90.21
2023-05-17T08:13:44.288Z,90.50
2023-05-17T08:16:49.712Z,90.93
2023-05-17T08:19:52.007Z,92.50
2023-05-17T08:22:54.268Z,90.94
2023-05-17T08:25:56.499Z,92.09
2023-05-17T08:29:03.248Z,92.64
2023-05-17T08:32:06.516Z,92.32
2023-05-17T08:35:08.932Z,92.55
2023-05-17T08:38:11.232Z,92.33
2023-05-17T08:41:14.049Z,91.82
2023-05-17T08:44:17.203Z,91.53
2023-05-17T08:47:29.856Z,90.22
2023-05-17T08:50:34.667Z,90.66
2023-05-17T08:53:37.043Z,90.21
2023-05-17T08:56:42.541Z,90.27
2023-05-17T08:59:46.793Z,90.49
2023-05-17T09:02:49.609Z,92.03
2023-05-17T09:05:55.689Z,91.83
2023-05-17T09:08:58.620Z,92.18
2023-05-17T09:12:04.321Z,91.62
2023-05-17T09:15:34.275Z,90.81
2023-05-17T09:18:36.847Z,90.64
2023-05-17T09:21:39.309Z,90.16
2023-05-17T09:24:42.547Z,88.68
2023-05-17T09:27:44.959Z,86.92
2023-05-17T09:30:49.247Z,87.84
2023-05-17T09:33:52.140Z,86.84
2023-05-17T09:36:55.191Z,87.65
2023-05-17T09:39:57.534Z,87.35
2023-05-17T09:43:01.892Z,87.90
2023-05-17T09:46:04.367Z,88.03
2023-05-17T09:49:07.522Z,88.44
2023-05-17T09:52:10.339Z,88.76
2023-05-17T09:55:13.609Z,88.03
2023-05-17T09:58:16.590Z,86.94
2023-05-17T10:01:19.489Z,86.95
2023-05-17T10:04:25.078Z,85.90
2023-05-17T10:07:27.960Z,85.90
2023-05-17T10:10:30.926Z,87.39
2023-05-17T10:13:55.991Z,87.46
2023-05-17T10:16:59.010Z,86.81
2023-05-17T10:20:02.245Z,85.72
2023-05-17T10:23:06.355Z,86.07
2023-05-17T10:26:09.080Z,85.71
2023-05-17T10:29:11.752Z,85.36
2023-05-17T10:32:14.920Z,85.59
2023-05-17T10:35:18.277Z,85.03
2023-05-17T10:38:24.076Z,84.37
2023-05-17T10:41:33.805Z,85.12
2023-05-17T10:44:37.941Z,85.02
2023-05-17T10:47:43.400Z,85.51
2023-05-17T10:50:54.528Z,85.70
2023-05-17T10:54:03.257Z,85.93
2023-05-17T10:57:08.832Z,85.89
2023-05-17T11:00:20.685Z,86.52
2023-05-17T11:03:30.309Z,86.08
2023-05-17T11:06:36.618Z,86.29
2023-05-17T11:09:41.015Z,86.23
2023-05-17T11:12:55.430Z,85.96
2023-05-17T11:16:05.126Z,86.28
2023-05-17T11:19:09.872Z,85.93
2023-05-17T11:22:15.607Z,84.92
2023-05-17T11:25:19.149Z,83.55
2023-05-17T11:28:22.491Z,82.97
2023-05-17T11:31:35.672Z,81.75
2023-05-17T11:34:38.558Z,81.47
2023-05-17T11:37:44.226Z,80.88
2023-05-17T11:40:50.114Z,80.29
2023-05-17T11:43:53.466Z,78.61
2023-05-17T11:47:07.147Z,76.00
2023-05-17T11:50:11.073Z,74.56
2023-05-17T11:53:14.650Z,72.38
2023-05-17T11:56:17.895Z,71.16
2023-05-17T11:59:21.536Z,66.74
2023-05-17T12:02:29.056Z,67.45
2023-05-17T12:05:31.372Z,68.31
2023-05-17T12:08:36.246Z,69.67
2023-05-17T12:11:39.651Z,70.19
2023-05-17T12:14:44.635Z,69.09
2023-05-17T12:17:51.405Z,67.36
2023-05-17T12:20:58.150Z,66.72
2023-05-17T12:24:00.504Z,65.77
2023-05-17T12:27:02.779Z,64.51
2023-05-17T12:30:15.775Z,64.30
2023-05-17T12:33:18.394Z,64.30
2023-05-17T12:36:21.615Z,65.27
2023-05-17T12:39:24.829Z,65.96
2023-05-17T12:42:27.258Z,67.46
2023-05-17T12:45:29.558Z,68.41
2023-05-17T12:48:33.685Z,70.70
2023-05-17T12:51:45.779Z,72.35
2023-05-17T12:54:49.177Z,74.73
2023-05-17T12:57:52.658Z,74.66
2023-05-17T13:00:59.595Z,74.95
2023-05-17T13:04:03.211Z,75.46
2023-05-17T13:07:06.180Z,74.59
2023-05-17T13:10:40.826Z,70.93
2023-05-17T13:13:43.092Z,72.07
2023-05-17T13:16:45.897Z,73.41
2023-05-17T13:19:48.643Z,74.57
2023-05-17T13:22:51.355Z,75.53
2023-05-17T13:25:54.135Z,76.06
2023-05-17T13:28:56.615Z,75.11
2023-05-17T13:31:58.916Z,74.83
2023-05-17T13:35:02.136Z,73.66
2023-05-17T13:38:04.402Z,73.63
2023-05-17T13:41:09.146Z,72.45
2023-05-17T13:44:11.820Z,70.80
2023-05-17T13:47:14.570Z,71.61
2023-05-17T13:50:17.448Z,74.17
2023-05-17T13:53:19.908Z,74.52
2023-05-17T13:56:22.436Z,75.68
2023-05-17T13:59:24.811Z,74.27
2023-05-17T14:02:27.157Z,73.69
2023-05-17T14:05:31.519Z,74.17
2023-05-17T14:08:34.297Z,75.78
2023-05-17T14:11:36.670Z,76.04
2023-05-17T14:14:38.906Z,76.68
2023-05-17T14:17:41.536Z,76.32
2023-05-17T14:20:43.939Z,75.59
2023-05-17T14:23:46.384Z,75.24
2023-05-17T14:26:48.662Z,75.70
2023-05-17T14:29:51.002Z,76.56
2023-05-17T14:32:53.329Z,76.04
2023-05-17T14:35:55.974Z,75.56
2023-05-17T14:38:59.375Z,74.72
2023-05-17T14:42:02.352Z,73.54
2023-05-17T14:45:06.087Z,73.98
2023-05-17T14:48:08.507Z,74.23
2023-05-17T14:51:10.771Z,74.17
2023-05-17T14:54:13.842Z,74.31
2023-05-17T14:57:16.335Z,73.69
2023-05-17T15:00:19.162Z,75.41
2023-05-17T15:03:22.297Z,76.07
2023-05-17T15:06:25.655Z,76.41
2023-05-17T15:09:28.252Z,76.10
2023-05-17T15:12:32.021Z,76.71
2023-05-17T15:15:34.288Z,77.98
2023-05-17T15:18:37.894Z,78.46
2023-05-17T15:21:40.162Z,78.52
2023-05-17T15:24:42.604Z,78.52
2023-05-17T15:27:44.934Z,80.24
2023-05-17T15:30:47.838Z,81.47
2023-05-17T15:33:51.168Z,83.12
2023-05-17T15:36:55.838Z,83.39
2023-05-17T15:40:07.737Z,83.77
2023-05-17T15:43:10.079Z,83.96
2023-05-17T15:46:12.393Z,84.36
2023-05-17T15:49:14.792Z,84.95
2023-05-17T15:52:17.204Z,84.57
2023-05-17T15:55:19.517Z,85.43
2023-05-17T15:58:23.842Z,84.80
2023-05-17T16:01:26.202Z,85.40
2023-05-17T16:04:28.562Z,85.00
2023-05-17T16:07:31.353Z,84.59
2023-05-17T16:10:34.967Z,84.57
2023-05-17T16:13:37.252Z,84.33
2023-05-17T16:16:39.625Z,84.23
2023-05-17T16:19:41.949Z,85.08
2023-05-17T16:22:48.353Z,84.37
2023-05-17T16:25:51.514Z,84.26
2023-05-17T16:28:53.825Z,84.57
2023-05-17T16:31:56.120Z,84.42
2023-05-17T16:34:58.400Z,85.14
2023-05-17T16:38:00.863Z,85.82
2023-05-17T16:41:03.436Z,86.11
2023-05-17T16:44:05.914Z,86.13
2023-05-17T16:47:08.263Z,86.27
2023-05-17T16:50:11.492Z,86.51
2023-05-17T16:53:13.734Z,86.46
2023-05-17T16:56:16.184Z,86.46
2023-05-17T16:59:18.408Z,86.57
2023-05-17T17:02:21.183Z,86.14
2023-05-17T17:05:23.469Z,86.23
2023-05-17T17:08:25.992Z,85.81
2023-05-17T17:11:28.246Z,86.90
2023-05-17T17:14:30.656Z,87.08
2023-05-17T17:17:39.298Z,87.06
2023-05-17T17:20:41.586Z,87.08
2023-05-17T17:23:51.069Z,86.98
2023-05-17T17:26:53.400Z,87.16
2023-05-17T17:29:55.758Z,87.83
2023-05-17T17:32:58.101Z,87.40
2023-05-17T17:36:00.479Z,87.62
2023-05-17T17:39:02.774Z,87.45
2023-05-17T17:42:05.224Z,87.33
2023-05-17T17:45:07.976Z,87.50
2023-05-17T17:48:10.303Z,87.85
2023-05-17T17:51:12.600Z,87.63
2023-05-17T17:54:14.859Z,88.22
2023-05-17T17:57:18.941Z,88.65
2023-05-17T18:00:21.516Z,88.69
2023-05-17T18:03:23.829Z,88.13
2023-05-17T18:06:26.296Z,88.33
2023-05-17T18:09:28.554Z,88.70
2023-05-17T18:12:30.874Z,88.66
2023-05-17T18:15:33.190Z,88.98
2023-05-17T18:18:37.029Z,89.46
2023-05-17T18:21:39.425Z,90.35
2023-05-17T18:24:41.748Z,90.49
2023-05-17T18:27:44.496Z,90.23
2023-05-17T18:30:46.759Z,90.39
2023-05-17T18:33:49.080Z,90.63
2023-05-17T18:36:51.339Z,90.79
2023-05-17T18:39:55.209Z,91.19
2023-05-17T18:42:57.461Z,91.22
2023-05-17T18:45:59.766Z,91.32
2023-05-17T18:49:02.150Z,90.60
2023-05-17T18:52:05.408Z,90.55
2023-05-17T18:55:07.864Z,91.16
2023-05-17T18:58:10.177Z,90.86
2023-05-17T19:01:12.541Z,90.83
2023-05-17T19:04:14.990Z,91.17
2023-05-17T19:07:17.307Z,91.85
2023-05-17T19:10:26.281Z,91.77
2023-05-17T19:13:28.630Z,91.60
2023-05-17T19:16:37.828Z,92.09
2023-05-17T19:19:40.129Z,91.79
2023-05-17T19:22:42.430Z,91.70
2023-05-17T19:25:44.713Z,91.40
2023-05-17T19:28:47.058Z,91.14
2023-05-17T19:31:49.374Z,91.36
2023-05-17T19:34:51.846Z,91.03
2023-05-17T19:37:56.638Z,90.97
2023-05-17T19:41:00.518Z,91.02
2023-05-17T19:44:02.825Z,90.88
2023-05-17T19:47:05.406Z,90.37
2023-05-17T19:50:08.539Z,90.44
2023-05-17T19:53:10.845Z,89.80
2023-05-17T19:56:13.121Z,89.93
2023-05-17T19:59:15.408Z,89.36
2023-05-17T20:02:17.718Z,89.77
2023-05-17T20:05:20.714Z,89.34
2023-05-17T20:08:23.061Z,89.77
2023-05-17T20:11:25.877Z,89.86
2023-05-17T20:14:28.180Z,90.47
2023-05-17T20:17:30.491Z,90.55
2023-05-17T20:20:32.832Z,90.78
2023-05-17T20:23:35.245Z,90.86
2023-05-17T20:26:37.836Z,91.04
2023-05-17T20:29:41.062Z,90.44
2023-05-17T20:32:43.380Z,91.31
2023-05-17T20:35:45.907Z,90.60
2023-05-17T20:38:48.241Z,91.20
2023-05-17T20:41:50.961Z,91.52
2023-05-17T20:44:53.838Z,91.05
2023-05-17T20:47:57.057Z,90.56
2023-05-17T20:50:59.413Z,91.15
2023-05-17T20:54:01.777Z,90.59
2023-05-17T20:57:04.280Z,90.37
2023-05-17T21:00:09.496Z,90.60
2023-05-17T21:03:11.782Z,91.36
2023-05-17T21:06:14.122Z,90.67
2023-05-17T21:09:18.931Z,90.37
2023-05-17T21:12:23.178Z,90.75
2023-05-17T21:15:26.148Z,91.04
2023-05-17T21:18:28.526Z,90.93
2023-05-17T21:21:30.891Z,91.02
2023-05-17T21:24:33.194Z,91.54
2023-05-17T21:27:35.602Z,91.81
2023-05-17T21:30:38.024Z,91.66
2023-05-17T21:33:40.424Z,91.50
2023-05-17T21:36:43.590Z,91.50
2023-05-17T21:39:46.049Z,91.51
2023-05-17T21:42:48.973Z,91.62
2023-05-17T21:45:51.998Z,91.73
2023-05-17T21:48:54.344Z,91.36
2023-05-17T21:51:56.624Z,91.50
2023-05-17T21:54:58.901Z,91.41
2023-05-17T21:58:03.322Z,92.01
2023-05-17T22:01:05.696Z,92.17
2023-05-17T22:04:09.343Z,92.16
2023-05-17T22:07:13.286Z,91.81
2023-05-17T22:10:15.671Z,92.07
2023-05-17T22:13:18.405Z,92.31
2023-05-17T22:16:24.007Z,91.99
2023-05-17T22:19:26.474Z,91.83
2023-05-17T22:22:32.270Z,91.93
2023-05-17T22:25:35.174Z,91.94
2023-05-17T22:28:37.731Z,92.28
2023-05-17T22:31:40.155Z,91.69
2023-05-17T22:34:42.615Z,91.80
2023-05-17T22:37:45.434Z,91.86
2023-05-17T22:40:47.718Z,91.96
2023-05-17T22:43:50.100Z,92.16
2023-05-17T22:46:52.600Z,92.04
2023-05-17T22:49:54.957Z,92.09
2023-05-17T22:53:06.015Z,91.63
2023-05-17T22:56:08.339Z,92.31
2023-05-17T22:59:10.703Z,91.66
2023-05-17T23:02:13.009Z,91.78
2023-05-17T23:05:15.304Z,91.88
2023-05-17T23:08:17.566Z,91.61
2023-05-17T23:11:20.188Z,92.09
2023-05-17T23:14:23.401Z,91.95
2023-05-17T23:17:32.300Z,91.86
2023-05-17T23:20:35.098Z,91.04
2023-05-17T23:23:38.163Z,91.26
2023-05-17T23:26:41.454Z,91.14
2023-05-17T23:29:43.697Z,91.18
2023-05-17T23:32:46.787Z,90.99
2023-05-17T23:35:49.127Z,91.09
2023-05-17T23:38:51.372Z,91.18
2023-05-17T23:41:53.687Z,91.65
2023-05-17T23:44:56.006Z,92.03
2023-05-17T23:48:00.548Z,91.46
2023-05-17T23:51:03.083Z,91.37
2023-05-17T23:54:05.633Z,91.23
2023-05-17T23:57:08.994Z,91.45
